createdAt,value
2019-05-20T00:00:34.640Z,0.00
2019-05-20T00:01:34.691Z,0.00
2019-05-20T00:02:34.633Z,0.00
2019-05-20T00:03:34.623Z,0.00
2019-05-20T00:04:34.599Z,0.00
2019-05-20T00:05:34.641Z,0.00
2019-05-20T00:06:34.586Z,0.00
2019-05-20T00:07:34.548Z,0.00
2019-05-20T00:08:34.562Z,0.00
2019-05-20T00:09:34.575Z,0.00
2019-05-20T00:10:34.518Z,0.00
2019-05-20T00:11:34.566Z,0.00
2019-05-20T00:12:34.531Z,0.00
2019-05-20T00:13:34.537Z,0.00
2019-05-20T00:14:34.493Z,0.00
2019-05-20T00:15:34.487Z,0.00
2019-05-20T00:16:34.497Z,0.00
2019-05-20T00:17:34.533Z,0.00
2019-05-20T00:18:34.440Z,0.00
2019-05-20T00:19:34.528Z,0.00
2019-05-20T00:20:34.464Z,0.00
2019-05-20T00:21:34.425Z,0.00
2019-05-20T00:22:34.478Z,0.00
2019-05-20T00:23:34.382Z,0.00
2019-05-20T00:24:34.378Z,0.00
2019-05-20T00:25:34.437Z,0.00
2019-05-20T00:26:34.379Z,0.00
2019-05-20T00:27:34.352Z,0.00
2019-05-20T00:28:34.358Z,0.00
2019-05-20T00:29:34.369Z,0.00
2019-05-20T00:30:34.340Z,0.00
2019-05-20T00:31:34.339Z,0.00
2019-05-20T00:32:41.027Z,0.00
2019-05-20T00:33:35.272Z,0.00
2019-05-20T00:34:35.688Z,0.00
2019-05-20T00:35:34.296Z,0.00
2019-05-20T00:36:34.277Z,0.00
2019-05-20T00:37:34.238Z,0.00
2019-05-20T00:38:34.289Z,0.00
2019-05-20T00:39:34.235Z,0.00
2019-05-20T00:40:34.207Z,0.00
2019-05-20T00:41:34.253Z,0.00
2019-05-20T00:42:34.182Z,0.00
2019-05-20T00:43:34.192Z,0.00
2019-05-20T00:44:34.171Z,0.00
2019-05-20T00:45:34.192Z,0.00
2019-05-20T00:46:34.191Z,0.00
2019-05-20T00:47:34.147Z,0.00
2019-05-20T00:48:34.145Z,0.00
2019-05-20T00:49:34.124Z,0.00
2019-05-20T00:50:34.099Z,0.00
2019-05-20T00:51:34.128Z,0.00
2019-05-20T00:52:34.088Z,0.00
2019-05-20T00:53:34.096Z,0.00
2019-05-20T00:54:34.160Z,0.00
2019-05-20T00:55:34.530Z,0.00
2019-05-20T00:56:43.287Z,0.00
2019-05-20T00:57:34.018Z,0.00
2019-05-20T00:58:33.996Z,0.00
2019-05-20T00:59:34.003Z,0.00
2019-05-20T01:00:34.044Z,0.00
2019-05-20T01:01:33.968Z,0.00
2019-05-20T01:02:33.975Z,0.00
2019-05-20T01:03:33.935Z,0.00
2019-05-20T01:04:33.944Z,0.00
2019-05-20T01:05:33.926Z,0.00
2019-05-20T01:06:33.913Z,0.00
2019-05-20T01:07:33.976Z,0.00
2019-05-20T01:08:33.914Z,0.00
2019-05-20T01:09:33.884Z,0.00
2019-05-20T01:10:33.875Z,0.00
2019-05-20T01:11:33.866Z,0.00
2019-05-20T01:12:33.871Z,0.00
2019-05-20T01:13:33.867Z,0.00
2019-05-20T01:14:33.845Z,0.00
2019-05-20T01:15:33.835Z,0.00
2019-05-20T01:16:33.812Z,0.00
2019-05-20T01:17:33.812Z,0.00
2019-05-20T01:18:33.994Z,0.00
2019-05-20T01:19:33.824Z,0.00
2019-05-20T01:20:33.781Z,0.00
2019-05-20T01:21:33.857Z,0.00
2019-05-20T01:22:33.735Z,0.00
2019-05-20T01:23:33.780Z,0.00
2019-05-20T01:24:33.859Z,0.00
2019-05-20T01:25:33.722Z,0.00
2019-05-20T01:26:33.718Z,0.00
2019-05-20T01:27:33.753Z,0.00
2019-05-20T01:28:33.705Z,0.00
2019-05-20T01:29:33.680Z,0.00
2019-05-20T01:30:33.666Z,0.00
2019-05-20T01:31:33.644Z,0.00
2019-05-20T01:32:33.669Z,0.00
2019-05-20T01:33:33.638Z,0.00
2019-05-20T01:34:33.723Z,0.00
2019-05-20T01:35:33.618Z,0.00
2019-05-20T01:36:33.597Z,0.00
2019-05-20T01:37:33.588Z,0.00
2019-05-20T01:38:33.567Z,0.00
2019-05-20T01:39:33.584Z,0.00
2019-05-20T01:40:33.568Z,0.00
2019-05-20T01:41:33.567Z,0.00
2019-05-20T01:42:33.559Z,0.00
2019-05-20T01:43:33.523Z,0.00
2019-05-20T01:44:33.506Z,0.00
2019-05-20T01:45:33.527Z,0.00
2019-05-20T01:46:33.483Z,0.00
2019-05-20T01:47:33.499Z,0.00
2019-05-20T01:48:33.453Z,0.00
2019-05-20T01:49:33.472Z,0.00
2019-05-20T01:50:33.483Z,0.00
2019-05-20T01:51:33.423Z,0.00
2019-05-20T01:52:33.445Z,0.00
2019-05-20T01:53:33.430Z,0.00
2019-05-20T01:54:33.404Z,0.00
2019-05-20T01:55:33.395Z,0.00
2019-05-20T01:56:33.392Z,0.00
2019-05-20T01:57:33.373Z,0.00
2019-05-20T01:58:33.341Z,0.00
2019-05-20T01:59:33.331Z,0.00
2019-05-20T02:00:33.348Z,0.00
2019-05-20T02:01:33.363Z,0.00
2019-05-20T02:02:33.322Z,0.00
2019-05-20T02:03:33.311Z,0.00
2019-05-20T02:04:33.289Z,0.00
2019-05-20T02:05:33.334Z,0.00
2019-05-20T02:06:33.263Z,0.00
2019-05-20T02:07:33.295Z,0.00
2019-05-20T02:08:33.247Z,0.00
2019-05-20T02:09:33.238Z,0.00
2019-05-20T02:10:33.238Z,0.00
2019-05-20T02:11:33.211Z,0.00
2019-05-20T02:12:33.229Z,0.00
2019-05-20T02:13:33.223Z,0.00
2019-05-20T02:14:33.182Z,0.00
2019-05-20T02:15:33.205Z,0.00
2019-05-20T02:16:33.160Z,0.00
2019-05-20T02:17:33.143Z,0.00
2019-05-20T02:18:33.175Z,0.00
2019-05-20T02:19:33.127Z,0.00
2019-05-20T02:20:33.115Z,0.00
2019-05-20T02:21:33.107Z,0.00
2019-05-20T02:22:33.091Z,0.00
2019-05-20T02:23:33.099Z,0.00
2019-05-20T02:24:33.077Z,0.00
2019-05-20T02:25:33.063Z,0.00
2019-05-20T02:26:33.065Z,0.00
2019-05-20T02:27:33.045Z,0.00
2019-05-20T02:28:33.057Z,0.00
2019-05-20T02:29:33.006Z,0.00
2019-05-20T02:30:33.024Z,0.00
2019-05-20T02:31:32.982Z,0.00
2019-05-20T02:32:32.993Z,0.00
2019-05-20T02:33:49.869Z,0.00
2019-05-20T02:34:34.032Z,0.00
2019-05-20T02:35:32.964Z,0.00
2019-05-20T02:36:32.947Z,0.00
2019-05-20T02:37:32.958Z,0.00
2019-05-20T02:38:32.963Z,0.00
2019-05-20T02:39:32.944Z,0.00
2019-05-20T02:40:32.901Z,0.00
2019-05-20T02:41:32.911Z,0.00
2019-05-20T02:42:32.926Z,0.00
2019-05-20T02:43:32.894Z,0.00
2019-05-20T02:44:32.908Z,0.00
2019-05-20T02:45:32.911Z,0.00
2019-05-20T02:46:32.844Z,0.00
2019-05-20T02:47:32.818Z,0.00
2019-05-20T02:48:32.916Z,0.00
2019-05-20T02:49:32.818Z,0.00
2019-05-20T02:50:32.886Z,0.00
2019-05-20T02:51:32.851Z,0.00
2019-05-20T02:52:32.773Z,0.00
2019-05-20T02:53:32.751Z,0.00
2019-05-20T02:54:32.766Z,0.00
2019-05-20T02:55:32.766Z,0.00
2019-05-20T02:56:32.784Z,0.00
2019-05-20T02:57:32.720Z,0.00
2019-05-20T02:58:32.734Z,0.00
2019-05-20T02:59:32.709Z,0.00
2019-05-20T03:00:32.748Z,0.00
2019-05-20T03:01:32.739Z,0.00
2019-05-20T03:02:32.739Z,0.00
2019-05-20T03:03:32.678Z,0.00
2019-05-20T03:04:32.635Z,0.00
2019-05-20T03:05:32.661Z,0.00
2019-05-20T03:06:32.647Z,0.00
2019-05-20T03:07:32.605Z,0.00
2019-05-20T03:08:32.761Z,0.00
2019-05-20T03:09:32.595Z,0.00
2019-05-20T03:10:32.571Z,0.00
2019-05-20T03:11:32.600Z,0.00
2019-05-20T03:12:32.678Z,0.00
2019-05-20T03:13:32.534Z,0.00
2019-05-20T03:14:32.564Z,0.00
2019-05-20T03:15:32.534Z,0.00
2019-05-20T03:16:32.506Z,5.62
2019-05-20T03:17:32.545Z,5.62
2019-05-20T03:18:32.555Z,5.62
2019-05-20T03:19:32.499Z,5.62
2019-05-20T03:20:32.473Z,5.62
2019-05-20T03:21:32.466Z,5.62
2019-05-20T03:22:32.527Z,5.62
2019-05-20T03:23:32.450Z,5.62
2019-05-20T03:24:32.432Z,5.62
2019-05-20T03:25:32.423Z,5.62
2019-05-20T03:26:32.411Z,11.25
2019-05-20T03:27:32.426Z,11.25
2019-05-20T03:28:32.399Z,11.25
2019-05-20T03:29:32.382Z,11.25
2019-05-20T03:30:32.381Z,11.25
2019-05-20T03:31:32.377Z,11.25
2019-05-20T03:32:32.365Z,11.25
2019-05-20T03:33:32.389Z,16.88
2019-05-20T03:34:47.951Z,16.88
2019-05-20T03:35:33.304Z,16.88
2019-05-20T03:36:32.302Z,16.88
2019-05-20T03:37:32.272Z,16.88
2019-05-20T03:38:32.298Z,16.88
2019-05-20T03:39:32.277Z,16.88
2019-05-20T03:40:32.307Z,16.88
2019-05-20T03:41:32.258Z,16.88
2019-05-20T03:42:32.217Z,16.88
2019-05-20T03:43:32.218Z,16.88
2019-05-20T03:44:32.264Z,16.88
2019-05-20T03:45:32.196Z,16.88
2019-05-20T03:46:32.205Z,16.88
2019-05-20T03:47:32.185Z,22.50
2019-05-20T03:48:32.204Z,22.50
2019-05-20T03:49:32.185Z,22.50
2019-05-20T03:50:32.187Z,22.50
2019-05-20T03:51:32.265Z,28.12
2019-05-20T03:52:32.113Z,28.12
2019-05-20T03:53:32.176Z,28.12
2019-05-20T03:54:32.134Z,28.12
2019-05-20T03:55:32.082Z,28.12
2019-05-20T03:56:32.084Z,28.12
2019-05-20T03:57:32.068Z,22.50
2019-05-20T03:58:32.173Z,22.50
2019-05-20T03:59:32.054Z,28.12
2019-05-20T04:00:32.052Z,28.12
2019-05-20T04:01:32.075Z,28.12
2019-05-20T04:02:32.002Z,28.12
2019-05-20T04:03:32.020Z,28.12
2019-05-20T04:04:32.037Z,28.12
2019-05-20T04:05:32.018Z,28.12
2019-05-20T04:06:31.997Z,28.12
2019-05-20T04:07:31.976Z,28.12
2019-05-20T04:08:31.987Z,28.12
2019-05-20T04:09:31.932Z,28.12
2019-05-20T04:10:31.919Z,28.12
2019-05-20T04:11:31.960Z,28.12
2019-05-20T04:12:31.911Z,28.12
2019-05-20T04:13:34.723Z,28.12
2019-05-20T04:14:31.896Z,28.12
2019-05-20T04:15:31.906Z,33.75
2019-05-20T04:16:31.895Z,33.75
2019-05-20T04:17:31.862Z,33.75
2019-05-20T04:18:31.841Z,33.75
2019-05-20T04:19:31.841Z,39.38
2019-05-20T04:20:31.828Z,39.38
2019-05-20T04:21:31.846Z,33.75
2019-05-20T04:22:31.799Z,33.75
2019-05-20T04:23:31.789Z,33.75
2019-05-20T04:24:31.787Z,33.75
2019-05-20T04:25:31.773Z,33.75
2019-05-20T04:26:31.766Z,39.38
2019-05-20T04:27:31.853Z,39.38
2019-05-20T04:28:31.775Z,39.38
2019-05-20T04:29:31.716Z,39.38
2019-05-20T04:30:31.705Z,45.00
2019-05-20T04:31:31.706Z,45.00
2019-05-20T04:32:31.715Z,45.00
2019-05-20T04:33:31.690Z,45.00
2019-05-20T04:34:31.684Z,45.00
2019-05-20T04:35:31.651Z,45.00
2019-05-20T04:36:31.735Z,50.62
2019-05-20T04:37:31.662Z,50.62
2019-05-20T04:38:31.737Z,50.62
2019-05-20T04:39:31.681Z,56.25
2019-05-20T04:40:31.641Z,56.25
2019-05-20T04:41:31.593Z,61.88
2019-05-20T04:42:31.596Z,61.88
2019-05-20T04:43:31.600Z,67.50
2019-05-20T04:44:31.573Z,67.50
2019-05-20T04:45:31.547Z,73.12
2019-05-20T04:46:31.561Z,73.12
2019-05-20T04:47:31.540Z,73.12
2019-05-20T04:48:31.542Z,73.12
2019-05-20T04:49:31.503Z,73.12
2019-05-20T04:50:31.511Z,78.75
2019-05-20T04:51:31.495Z,78.75
2019-05-20T04:52:31.468Z,78.75
2019-05-20T04:53:31.494Z,78.75
2019-05-20T04:54:31.465Z,78.75
2019-05-20T04:55:31.429Z,78.75
2019-05-20T04:56:31.458Z,84.38
2019-05-20T04:57:31.426Z,84.38
2019-05-20T04:58:31.427Z,84.38
2019-05-20T04:59:31.412Z,90.00
2019-05-20T05:00:31.390Z,90.00
2019-05-20T05:01:31.379Z,84.38
2019-05-20T05:02:31.367Z,84.38
2019-05-20T05:03:31.427Z,84.38
2019-05-20T05:04:31.396Z,84.38
2019-05-20T05:05:37.575Z,84.38
2019-05-20T05:06:32.329Z,84.38
2019-05-20T05:07:31.310Z,90.00
2019-05-20T05:08:31.298Z,95.62
2019-05-20T05:09:31.925Z,101.25
2019-05-20T05:10:31.291Z,106.88
2019-05-20T05:11:31.292Z,106.88
2019-05-20T05:12:31.344Z,112.50
2019-05-20T05:13:31.259Z,118.12
2019-05-20T05:14:31.237Z,123.75
2019-05-20T05:15:31.282Z,123.75
2019-05-20T05:16:31.234Z,123.75
2019-05-20T05:17:31.209Z,123.75
2019-05-20T05:18:31.283Z,129.38
2019-05-20T05:19:31.174Z,146.25
2019-05-20T05:20:31.215Z,151.88
2019-05-20T05:21:31.170Z,163.12
2019-05-20T05:22:31.150Z,168.75
2019-05-20T05:23:31.206Z,168.75
2019-05-20T05:24:31.134Z,168.75
2019-05-20T05:25:31.146Z,168.75
2019-05-20T05:26:31.113Z,163.12
2019-05-20T05:27:31.120Z,168.75
2019-05-20T05:28:31.082Z,168.75
2019-05-20T05:29:31.070Z,168.75
2019-05-20T05:30:31.092Z,168.75
2019-05-20T05:31:31.089Z,174.38
2019-05-20T05:32:31.045Z,174.38
2019-05-20T05:33:31.036Z,180.00
2019-05-20T05:34:31.010Z,180.00
2019-05-20T05:35:31.030Z,185.62
2019-05-20T05:36:31.021Z,185.62
2019-05-20T05:37:31.002Z,191.25
2019-05-20T05:38:31.000Z,196.88
2019-05-20T05:39:30.960Z,208.12
2019-05-20T05:40:30.951Z,213.75
2019-05-20T05:41:30.990Z,213.75
2019-05-20T05:42:30.936Z,219.38
2019-05-20T05:43:30.929Z,225.00
2019-05-20T05:44:30.928Z,236.25
2019-05-20T05:45:30.968Z,241.88
2019-05-20T05:46:30.924Z,253.12
2019-05-20T05:47:30.882Z,258.75
2019-05-20T05:48:30.879Z,258.75
2019-05-20T05:49:30.907Z,264.38
2019-05-20T05:50:30.841Z,270.00
2019-05-20T05:51:30.844Z,270.00
2019-05-20T05:52:30.861Z,258.75
2019-05-20T05:53:30.828Z,258.75
2019-05-20T05:54:30.806Z,258.75
2019-05-20T05:55:30.802Z,258.75
2019-05-20T05:56:30.782Z,258.75
2019-05-20T05:57:30.774Z,264.38
2019-05-20T05:58:30.805Z,270.00
2019-05-20T05:59:30.784Z,258.75
2019-05-20T06:00:30.870Z,258.75
2019-05-20T06:01:30.741Z,264.38
2019-05-20T06:02:30.721Z,270.00
2019-05-20T06:03:30.857Z,286.88
2019-05-20T06:04:30.699Z,281.25
2019-05-20T06:05:31.747Z,286.88
2019-05-20T06:06:30.749Z,292.50
2019-05-20T06:07:30.686Z,298.12
2019-05-20T06:08:30.690Z,320.62
2019-05-20T06:09:30.685Z,320.62
2019-05-20T06:10:30.646Z,326.25
2019-05-20T06:11:30.620Z,337.50
2019-05-20T06:12:30.727Z,348.75
2019-05-20T06:13:30.645Z,343.12
2019-05-20T06:14:30.593Z,331.88
2019-05-20T06:15:30.661Z,326.25
2019-05-20T06:16:36.474Z,331.88
2019-05-20T06:17:31.637Z,337.50
2019-05-20T06:18:30.643Z,337.50
2019-05-20T06:19:30.594Z,315.00
2019-05-20T06:20:30.533Z,303.75
2019-05-20T06:21:30.574Z,315.00
2019-05-20T06:22:30.514Z,331.88
2019-05-20T06:23:30.502Z,360.00
2019-05-20T06:24:30.519Z,343.12
2019-05-20T06:25:30.538Z,337.50
2019-05-20T06:26:30.489Z,331.88
2019-05-20T06:27:30.465Z,331.88
2019-05-20T06:28:30.441Z,326.25
2019-05-20T06:29:30.444Z,303.75
2019-05-20T06:30:30.491Z,303.75
2019-05-20T06:31:30.422Z,315.00
2019-05-20T06:32:30.435Z,331.88
2019-05-20T06:33:30.390Z,343.12
2019-05-20T06:34:30.392Z,354.38
2019-05-20T06:35:30.390Z,354.38
2019-05-20T06:36:30.373Z,343.12
2019-05-20T06:37:30.371Z,331.88
2019-05-20T06:38:30.349Z,320.62
2019-05-20T06:39:30.339Z,331.88
2019-05-20T06:40:30.312Z,303.75
2019-05-20T06:41:30.323Z,303.75
2019-05-20T06:42:30.337Z,298.12
2019-05-20T06:43:30.291Z,303.75
2019-05-20T06:44:30.292Z,309.38
2019-05-20T06:45:30.273Z,320.62
2019-05-20T06:46:30.280Z,337.50
2019-05-20T06:47:30.242Z,331.88
2019-05-20T06:48:30.239Z,354.38
2019-05-20T06:49:30.219Z,326.25
2019-05-20T06:50:30.257Z,309.38
2019-05-20T06:51:30.219Z,298.12
2019-05-20T06:52:35.855Z,286.88
2019-05-20T06:53:31.176Z,292.50
2019-05-20T06:54:30.181Z,303.75
2019-05-20T06:55:30.167Z,286.88
2019-05-20T06:56:30.160Z,292.50
2019-05-20T06:57:30.174Z,326.25
2019-05-20T06:58:30.141Z,365.62
2019-05-20T06:59:30.161Z,416.25
2019-05-20T07:00:30.145Z,433.12
2019-05-20T07:01:30.105Z,433.12
2019-05-20T07:02:30.109Z,461.25
2019-05-20T07:03:30.088Z,427.50
2019-05-20T07:04:30.070Z,399.38
2019-05-20T07:05:30.056Z,388.12
2019-05-20T07:06:44.908Z,360.00
2019-05-20T07:07:31.053Z,382.50
2019-05-20T07:08:30.072Z,399.38
2019-05-20T07:09:30.030Z,416.25
2019-05-20T07:10:29.995Z,438.75
2019-05-20T07:11:29.994Z,455.62
2019-05-20T07:12:40.611Z,433.12
2019-05-20T07:13:30.979Z,438.75
2019-05-20T07:14:29.971Z,466.88
2019-05-20T07:15:29.959Z,466.88
2019-05-20T07:16:29.930Z,478.12
2019-05-20T07:17:29.936Z,495.00
2019-05-20T07:18:29.960Z,495.00
2019-05-20T07:19:29.897Z,506.25
2019-05-20T07:20:29.899Z,489.38
2019-05-20T07:21:29.915Z,495.00
2019-05-20T07:22:29.864Z,495.00
2019-05-20T07:23:29.961Z,483.75
2019-05-20T07:24:29.868Z,461.25
2019-05-20T07:25:29.886Z,444.38
2019-05-20T07:26:29.954Z,438.75
2019-05-20T07:27:29.823Z,410.62
2019-05-20T07:28:29.807Z,450.00
2019-05-20T07:29:29.861Z,466.88
2019-05-20T07:30:29.771Z,483.75
2019-05-20T07:31:29.766Z,472.50
2019-05-20T07:32:29.814Z,489.38
2019-05-20T07:33:29.751Z,461.25
2019-05-20T07:34:29.723Z,495.00
2019-05-20T07:35:31.158Z,483.75
2019-05-20T07:36:29.737Z,466.88
2019-05-20T07:37:29.733Z,495.00
2019-05-20T07:38:29.787Z,478.12
2019-05-20T07:39:29.692Z,444.38
2019-05-20T07:40:29.697Z,444.38
2019-05-20T07:41:29.735Z,438.75
2019-05-20T07:42:29.661Z,427.50
2019-05-20T07:43:29.653Z,399.38
2019-05-20T07:44:29.675Z,365.62
2019-05-20T07:45:29.701Z,360.00
2019-05-20T07:46:29.641Z,343.12
2019-05-20T07:47:29.607Z,315.00
2019-05-20T07:48:29.705Z,343.12
2019-05-20T07:49:29.595Z,376.88
2019-05-20T07:50:29.579Z,427.50
2019-05-20T07:51:29.572Z,399.38
2019-05-20T07:52:29.596Z,382.50
2019-05-20T07:53:29.684Z,360.00
2019-05-20T07:54:29.548Z,360.00
2019-05-20T07:55:29.718Z,360.00
2019-05-20T07:56:29.587Z,360.00
2019-05-20T07:57:29.525Z,343.12
2019-05-20T07:58:32.968Z,331.88
2019-05-20T07:59:29.501Z,331.88
2019-05-20T08:00:29.584Z,354.38
2019-05-20T08:01:29.565Z,343.12
2019-05-20T08:02:29.477Z,331.88
2019-05-20T08:03:29.543Z,337.50
2019-05-20T08:04:29.955Z,348.75
2019-05-20T08:05:29.459Z,382.50
2019-05-20T08:06:29.578Z,410.62
2019-05-20T08:07:49.960Z,444.38
2019-05-20T08:08:30.394Z,466.88
2019-05-20T08:09:29.466Z,523.12
2019-05-20T08:10:29.402Z,545.62
2019-05-20T08:11:29.424Z,568.12
2019-05-20T08:12:29.393Z,506.25
2019-05-20T08:13:29.348Z,472.50
2019-05-20T08:14:29.361Z,455.62
2019-05-20T08:15:29.343Z,461.25
2019-05-20T08:16:29.351Z,472.50
2019-05-20T08:17:29.316Z,466.88
2019-05-20T08:18:29.323Z,444.38
2019-05-20T08:19:29.297Z,438.75
2019-05-20T08:20:29.260Z,455.62
2019-05-20T08:21:29.279Z,511.88
2019-05-20T08:22:29.253Z,495.00
2019-05-20T08:23:29.236Z,500.62
2019-05-20T08:24:29.222Z,500.62
2019-05-20T08:25:29.190Z,478.12
2019-05-20T08:26:29.202Z,483.75
2019-05-20T08:27:29.168Z,551.25
2019-05-20T08:28:29.154Z,573.75
2019-05-20T08:29:29.153Z,517.50
2019-05-20T08:30:29.129Z,534.38
2019-05-20T08:31:29.123Z,506.25
2019-05-20T08:32:29.183Z,506.25
2019-05-20T08:33:29.112Z,528.75
2019-05-20T08:34:29.132Z,579.38
2019-05-20T08:35:29.071Z,579.38
2019-05-20T08:36:29.115Z,545.62
2019-05-20T08:37:44.359Z,540.00
2019-05-20T08:38:30.052Z,540.00
2019-05-20T08:39:29.032Z,517.50
2019-05-20T08:40:29.087Z,500.62
2019-05-20T08:41:29.031Z,545.62
2019-05-20T08:42:29.027Z,534.38
2019-05-20T08:43:29.041Z,540.00
2019-05-20T08:44:29.106Z,596.25
2019-05-20T08:45:29.002Z,646.88
2019-05-20T08:46:28.989Z,573.75
2019-05-20T08:47:28.948Z,613.12
2019-05-20T08:48:29.158Z,697.50
2019-05-20T08:49:28.946Z,731.25
2019-05-20T08:50:28.925Z,725.62
2019-05-20T08:51:28.930Z,770.62
2019-05-20T08:52:28.911Z,725.62
2019-05-20T08:53:28.888Z,669.38
2019-05-20T08:54:28.874Z,691.88
2019-05-20T08:55:28.856Z,613.12
2019-05-20T08:56:28.895Z,590.62
2019-05-20T08:57:28.863Z,585.00
2019-05-20T08:58:28.845Z,585.00
2019-05-20T08:59:28.815Z,585.00
2019-05-20T09:00:28.829Z,562.50
2019-05-20T09:01:28.832Z,534.38
2019-05-20T09:02:28.805Z,517.50
2019-05-20T09:03:30.530Z,523.12
2019-05-20T09:04:28.775Z,568.12
2019-05-20T09:05:28.967Z,579.38
2019-05-20T09:06:28.780Z,540.00
2019-05-20T09:07:28.755Z,540.00
2019-05-20T09:08:28.714Z,545.62
2019-05-20T09:09:28.835Z,540.00
2019-05-20T09:10:28.710Z,545.62
2019-05-20T09:11:28.726Z,579.38
2019-05-20T09:12:28.700Z,585.00
2019-05-20T09:13:28.680Z,573.75
2019-05-20T09:14:28.684Z,562.50
2019-05-20T09:15:28.959Z,613.12
2019-05-20T09:16:28.658Z,731.25
2019-05-20T09:17:28.678Z,691.88
2019-05-20T09:18:28.616Z,641.25
2019-05-20T09:19:28.641Z,652.50
2019-05-20T09:20:28.624Z,680.62
2019-05-20T09:21:28.594Z,686.25
2019-05-20T09:22:28.585Z,607.50
2019-05-20T09:23:28.577Z,590.62
2019-05-20T09:24:28.557Z,568.12
2019-05-20T09:25:28.545Z,523.12
2019-05-20T09:26:28.537Z,517.50
2019-05-20T09:27:28.531Z,483.75
2019-05-20T09:28:28.771Z,478.12
2019-05-20T09:29:28.497Z,500.62
2019-05-20T09:30:28.485Z,534.38
2019-05-20T09:31:28.640Z,528.75
2019-05-20T09:32:28.484Z,573.75
2019-05-20T09:33:28.484Z,607.50
2019-05-20T09:34:28.472Z,579.38
2019-05-20T09:35:28.542Z,573.75
2019-05-20T09:36:28.425Z,613.12
2019-05-20T09:37:28.406Z,590.62
2019-05-20T09:38:28.392Z,596.25
2019-05-20T09:39:28.405Z,607.50
2019-05-20T09:40:28.383Z,585.00
2019-05-20T09:41:28.395Z,545.62
2019-05-20T09:42:28.376Z,534.38
2019-05-20T09:43:28.365Z,478.12
2019-05-20T09:44:28.393Z,438.75
2019-05-20T09:45:28.325Z,438.75
2019-05-20T09:46:28.313Z,517.50
2019-05-20T09:47:28.320Z,607.50
2019-05-20T09:48:28.300Z,596.25
2019-05-20T09:49:28.298Z,517.50
2019-05-20T09:50:28.287Z,590.62
2019-05-20T09:51:28.261Z,579.38
2019-05-20T09:52:28.265Z,500.62
2019-05-20T09:53:28.238Z,455.62
2019-05-20T09:54:28.236Z,466.88
2019-05-20T09:55:28.312Z,461.25
2019-05-20T09:56:28.214Z,466.88
2019-05-20T09:57:28.207Z,517.50
2019-05-20T09:58:28.198Z,596.25
2019-05-20T09:59:42.056Z,630.00
2019-05-20T10:00:29.250Z,624.38
2019-05-20T10:01:28.154Z,613.12
2019-05-20T10:02:36.202Z,618.75
2019-05-20T10:03:29.182Z,607.50
2019-05-20T10:04:28.120Z,646.88
2019-05-20T10:05:28.131Z,720.00
2019-05-20T10:06:28.135Z,838.12
2019-05-20T10:07:28.112Z,1023.75
2019-05-20T10:08:37.986Z,984.38
2019-05-20T10:09:29.212Z,1091.25
2019-05-20T10:10:28.084Z,2874.38
2019-05-20T10:11:28.061Z,2874.38
2019-05-20T10:12:44.594Z,1220.62
2019-05-20T10:13:29.030Z,1181.25
2019-05-20T10:14:28.074Z,2874.38
2019-05-20T10:15:28.003Z,1400.62
2019-05-20T10:16:28.030Z,1158.75
2019-05-20T10:17:27.982Z,1237.50
2019-05-20T10:18:37.092Z,2874.38
2019-05-20T10:19:28.960Z,1389.38
2019-05-20T10:20:27.998Z,2874.38
2019-05-20T10:21:27.978Z,2874.38
2019-05-20T10:22:27.926Z,2874.38
2019-05-20T10:23:27.926Z,2874.38
2019-05-20T10:24:27.894Z,2874.38
2019-05-20T10:25:27.901Z,1350.00
2019-05-20T10:26:27.884Z,2874.38
2019-05-20T10:27:27.899Z,1130.62
2019-05-20T10:28:27.868Z,1141.88
2019-05-20T10:29:27.853Z,2874.38
2019-05-20T10:30:27.851Z,1231.88
2019-05-20T10:31:27.841Z,1153.12
2019-05-20T10:32:27.848Z,1130.62
2019-05-20T10:33:27.828Z,984.38
2019-05-20T10:34:27.828Z,1012.50
2019-05-20T10:35:27.825Z,1074.38
2019-05-20T10:36:27.779Z,1350.00
2019-05-20T10:37:27.765Z,1411.88
2019-05-20T10:38:27.770Z,1063.12
2019-05-20T10:39:27.760Z,1001.25
2019-05-20T10:40:27.786Z,1046.25
2019-05-20T10:41:29.583Z,1091.25
2019-05-20T10:42:27.783Z,1080.00
2019-05-20T10:43:27.728Z,1119.38
2019-05-20T10:44:27.830Z,978.75
2019-05-20T10:45:27.699Z,928.12
2019-05-20T10:46:27.686Z,967.50
2019-05-20T10:47:27.843Z,877.50
2019-05-20T10:48:27.703Z,871.88
2019-05-20T10:49:27.637Z,945.00
2019-05-20T10:50:27.761Z,1063.12
2019-05-20T10:51:27.633Z,2874.38
2019-05-20T10:52:27.598Z,2874.38
2019-05-20T10:53:28.425Z,1243.12
2019-05-20T10:54:27.620Z,1096.88
2019-05-20T10:55:27.605Z,894.38
2019-05-20T10:56:27.650Z,798.75
2019-05-20T10:57:27.574Z,826.88
2019-05-20T10:58:27.553Z,967.50
2019-05-20T10:59:27.719Z,1074.38
2019-05-20T11:00:27.534Z,1068.75
2019-05-20T11:01:27.531Z,1074.38
2019-05-20T11:02:31.117Z,1209.38
2019-05-20T11:03:27.495Z,1310.62
2019-05-20T11:04:27.510Z,1400.62
2019-05-20T11:05:27.476Z,1411.88
2019-05-20T11:06:27.470Z,2874.38
2019-05-20T11:07:27.469Z,2874.38
2019-05-20T11:08:27.430Z,2874.38
2019-05-20T11:09:27.442Z,2874.38
2019-05-20T11:10:27.527Z,2874.38
2019-05-20T11:11:27.418Z,1333.12
2019-05-20T11:12:27.424Z,2874.38
2019-05-20T11:13:27.400Z,2874.38
2019-05-20T11:14:27.394Z,2874.38
2019-05-20T11:15:27.413Z,2874.38
2019-05-20T11:16:27.376Z,1220.62
2019-05-20T11:17:27.354Z,2874.38
2019-05-20T11:18:27.330Z,2874.38
2019-05-20T11:19:27.359Z,1125.00
2019-05-20T11:20:27.362Z,1226.25
2019-05-20T11:21:27.311Z,1383.75
2019-05-20T11:22:27.306Z,1423.12
2019-05-20T11:23:27.297Z,2874.38
2019-05-20T11:24:27.264Z,1023.75
2019-05-20T11:25:27.272Z,2874.38
2019-05-20T11:26:27.278Z,2874.38
2019-05-20T11:27:27.262Z,2874.38
2019-05-20T11:28:27.234Z,2874.38
2019-05-20T11:29:27.227Z,1231.88
2019-05-20T11:30:27.228Z,1338.75
2019-05-20T11:31:27.242Z,1130.62
2019-05-20T11:32:27.207Z,804.38
2019-05-20T11:33:27.192Z,742.50
2019-05-20T11:34:27.193Z,900.00
2019-05-20T11:35:27.159Z,916.88
2019-05-20T11:36:27.173Z,1395.00
2019-05-20T11:37:27.181Z,2874.38
2019-05-20T11:38:27.130Z,2874.38
2019-05-20T11:39:33.459Z,2874.38
2019-05-20T11:40:28.120Z,1321.88
2019-05-20T11:41:52.309Z,2874.38
2019-05-20T11:42:28.115Z,2874.38
2019-05-20T11:43:27.083Z,2874.38
2019-05-20T11:44:27.072Z,2874.38
2019-05-20T11:45:27.073Z,1119.38
2019-05-20T11:46:27.065Z,1096.88
2019-05-20T11:47:27.051Z,2874.38
2019-05-20T11:48:27.085Z,2874.38
2019-05-20T11:49:29.247Z,2874.38
2019-05-20T11:50:27.014Z,1316.25
2019-05-20T11:51:26.995Z,2874.38
2019-05-20T11:52:27.007Z,2874.38
2019-05-20T11:53:27.023Z,2874.38
2019-05-20T11:54:27.065Z,2874.38
2019-05-20T11:55:26.979Z,1012.50
2019-05-20T11:56:27.029Z,911.25
2019-05-20T11:57:27.040Z,1023.75
2019-05-20T11:58:26.960Z,1355.62
2019-05-20T11:59:26.910Z,1209.38
2019-05-20T12:00:26.998Z,1181.25
2019-05-20T12:01:26.880Z,1276.88
2019-05-20T12:02:26.882Z,1321.88
2019-05-20T12:03:26.997Z,2874.38
2019-05-20T12:04:26.913Z,1265.62
2019-05-20T12:05:26.853Z,2874.38
2019-05-20T12:06:26.988Z,1344.38
2019-05-20T12:07:26.834Z,1035.00
2019-05-20T12:08:26.817Z,978.75
2019-05-20T12:09:26.859Z,1051.88
2019-05-20T12:10:27.056Z,1231.88
2019-05-20T12:11:26.795Z,2874.38
2019-05-20T12:12:26.781Z,2874.38
2019-05-20T12:13:26.785Z,2874.38
2019-05-20T12:14:26.767Z,2874.38
2019-05-20T12:15:26.774Z,1254.38
2019-05-20T12:16:26.828Z,1293.75
2019-05-20T12:17:26.749Z,1096.88
2019-05-20T12:18:26.766Z,1074.38
2019-05-20T12:19:26.717Z,2874.38
2019-05-20T12:20:26.770Z,2874.38
2019-05-20T12:21:26.725Z,2874.38
2019-05-20T12:22:26.722Z,2874.38
2019-05-20T12:23:26.672Z,2874.38
2019-05-20T12:24:26.652Z,2874.38
2019-05-20T12:25:26.772Z,1299.38
2019-05-20T12:26:26.636Z,1175.62
2019-05-20T12:27:26.627Z,2874.38
2019-05-20T12:28:26.614Z,2874.38
2019-05-20T12:29:26.621Z,2874.38
2019-05-20T12:30:26.600Z,2874.38
2019-05-20T12:31:26.626Z,2874.38
2019-05-20T12:32:26.587Z,2874.38
2019-05-20T12:33:26.582Z,2874.38
2019-05-20T12:34:26.569Z,2874.38
2019-05-20T12:35:26.568Z,2874.38
2019-05-20T12:36:26.622Z,2874.38
2019-05-20T12:37:26.515Z,2874.38
2019-05-20T12:38:26.568Z,2874.38
2019-05-20T12:39:26.762Z,2874.38
2019-05-20T12:40:26.508Z,2874.38